createdAt,value
2019-03-29T00:00:32.611Z,74.40
2019-03-29T00:02:05.439Z,75.10
2019-03-29T00:03:38.115Z,74.70
2019-03-29T00:05:10.885Z,74.80
2019-03-29T00:06:43.605Z,74.80
2019-03-29T00:08:16.447Z,74.50
2019-03-29T00:09:49.233Z,75.00
2019-03-29T00:11:22.028Z,75.10
2019-03-29T00:12:54.848Z,75.10
2019-03-29T00:14:27.684Z,75.20
2019-03-29T00:16:00.345Z,75.20
2019-03-29T00:17:33.162Z,74.90
2019-03-29T00:19:05.941Z,75.60
2019-03-29T00:20:38.717Z,76.20
2019-03-29T00:22:11.518Z,75.50
2019-03-29T00:23:44.375Z,75.20
2019-03-29T00:25:17.158Z,75.00
2019-03-29T00:26:49.965Z,74.70
2019-03-29T00:28:22.783Z,74.80
2019-03-29T00:29:55.939Z,74.60
2019-03-29T00:31:28.861Z,74.70
2019-03-29T00:33:01.656Z,74.70
2019-03-29T00:34:34.444Z,75.20
2019-03-29T00:36:07.270Z,74.70
2019-03-29T00:37:52.941Z,74.60
2019-03-29T00:39:15.029Z,74.60
2019-03-29T00:40:48.113Z,74.70
2019-03-29T00:42:20.899Z,75.00
2019-03-29T00:43:53.709Z,75.00
2019-03-29T00:45:26.541Z,74.40
2019-03-29T00:46:59.204Z,74.70
2019-03-29T00:48:35.380Z,74.80
2019-03-29T00:50:07.051Z,75.40
2019-03-29T00:51:40.138Z,75.00
2019-03-29T00:53:12.985Z,74.70
2019-03-29T00:54:45.791Z,74.40
2019-03-29T00:56:18.453Z,74.50
2019-03-29T00:57:51.287Z,75.10
2019-03-29T00:59:23.950Z,74.70
2019-03-29T01:00:56.763Z,74.80
2019-03-29T01:02:29.444Z,74.80
2019-03-29T01:04:02.914Z,74.70
2019-03-29T01:05:35.938Z,74.70
2019-03-29T01:07:08.795Z,75.20
2019-03-29T01:08:41.516Z,74.70
2019-03-29T01:10:14.510Z,74.70
2019-03-29T01:11:47.308Z,74.60
2019-03-29T01:13:20.133Z,74.50
2019-03-29T01:14:52.804Z,74.90
2019-03-29T01:16:25.745Z,75.00
2019-03-29T01:17:58.591Z,74.60
2019-03-29T01:19:31.377Z,74.90
2019-03-29T01:21:04.222Z,74.70
2019-03-29T01:22:36.883Z,74.90
2019-03-29T01:24:09.678Z,75.70
2019-03-29T01:25:42.544Z,75.00
2019-03-29T01:27:15.403Z,75.30
2019-03-29T01:28:48.261Z,75.70
2019-03-29T01:30:21.103Z,75.60
2019-03-29T01:31:54.028Z,75.50
2019-03-29T01:33:26.861Z,75.20
2019-03-29T01:34:59.723Z,75.30
2019-03-29T01:36:32.582Z,75.20
2019-03-29T01:38:05.378Z,75.60
2019-03-29T01:39:38.132Z,75.30
2019-03-29T01:41:10.800Z,75.90
2019-03-29T01:42:44.874Z,76.00
2019-03-29T01:44:17.901Z,75.60
2019-03-29T01:45:50.748Z,75.50
2019-03-29T01:47:23.557Z,75.60
2019-03-29T01:48:56.263Z,75.60
2019-03-29T01:50:28.906Z,75.60
2019-03-29T01:52:04.048Z,76.00
2019-03-29T01:53:37.285Z,75.60
2019-03-29T01:55:10.828Z,76.00
2019-03-29T01:56:43.537Z,76.10
2019-03-29T01:58:16.294Z,76.00
2019-03-29T01:59:49.111Z,75.90
2019-03-29T02:01:21.745Z,75.70
2019-03-29T02:02:54.530Z,75.70
2019-03-29T02:04:27.333Z,75.50
2019-03-29T02:06:00.154Z,75.60
2019-03-29T02:07:32.971Z,75.30
2019-03-29T02:09:05.871Z,75.30
2019-03-29T02:10:38.638Z,75.50
2019-03-29T02:12:11.417Z,75.50
2019-03-29T02:13:44.223Z,75.70
2019-03-29T02:15:17.019Z,76.20
2019-03-29T02:16:49.735Z,75.90
2019-03-29T02:18:22.557Z,75.40
2019-03-29T02:19:55.421Z,75.50
2019-03-29T02:21:29.532Z,76.00
2019-03-29T02:23:02.427Z,75.90
2019-03-29T02:24:36.118Z,76.30
2019-03-29T02:26:09.169Z,77.00
2019-03-29T02:27:41.993Z,76.00
2019-03-29T02:29:14.773Z,75.90
2019-03-29T02:30:47.602Z,76.30
2019-03-29T02:32:20.257Z,76.10
2019-03-29T02:33:53.087Z,76.90
2019-03-29T02:35:25.912Z,76.00
2019-03-29T02:36:58.735Z,75.70
2019-03-29T02:38:31.577Z,75.90
2019-03-29T02:40:05.279Z,76.70
2019-03-29T02:41:37.936Z,76.60
2019-03-29T02:43:11.146Z,76.80
2019-03-29T02:44:44.152Z,77.30
2019-03-29T02:46:16.808Z,76.10
2019-03-29T02:47:49.634Z,76.30
2019-03-29T02:49:22.444Z,76.50
2019-03-29T02:50:55.218Z,76.20
2019-03-29T02:52:28.101Z,76.30
2019-03-29T02:54:00.944Z,76.20
2019-03-29T02:55:33.779Z,76.60
2019-03-29T02:57:06.576Z,76.60
2019-03-29T02:58:39.377Z,76.20
2019-03-29T03:00:13.002Z,76.60
2019-03-29T03:01:45.844Z,76.60
2019-03-29T03:03:18.606Z,76.40
2019-03-29T03:04:51.403Z,76.40
2019-03-29T03:06:24.207Z,76.20
2019-03-29T03:07:57.006Z,76.30
2019-03-29T03:09:29.660Z,76.30
2019-03-29T03:11:02.712Z,76.80
2019-03-29T03:12:35.540Z,76.50
2019-03-29T03:14:08.297Z,76.70
2019-03-29T03:15:40.944Z,77.30
2019-03-29T03:17:13.721Z,76.80
2019-03-29T03:18:46.489Z,77.20
2019-03-29T03:20:19.143Z,77.10
2019-03-29T03:21:52.023Z,77.40
2019-03-29T03:23:24.809Z,77.20
2019-03-29T03:24:57.615Z,77.30
2019-03-29T03:26:30.430Z,76.90
2019-03-29T03:28:03.319Z,77.40
2019-03-29T03:29:35.982Z,76.90
2019-03-29T03:31:08.867Z,77.50
2019-03-29T03:32:41.590Z,76.90
2019-03-29T03:34:14.339Z,77.20
2019-03-29T03:35:47.043Z,77.50
2019-03-29T03:37:19.721Z,77.60
2019-03-29T03:38:52.590Z,77.90
2019-03-29T03:40:25.283Z,77.40
2019-03-29T03:41:58.096Z,77.30
2019-03-29T03:43:30.757Z,77.40
2019-03-29T03:45:04.030Z,77.80
2019-03-29T03:46:36.733Z,78.20
2019-03-29T03:48:09.502Z,78.20
2019-03-29T03:49:42.405Z,77.60
2019-03-29T03:51:15.313Z,77.80
2019-03-29T03:52:48.393Z,77.90
2019-03-29T03:54:21.578Z,77.90
2019-03-29T03:55:54.949Z,78.30
2019-03-29T03:57:28.038Z,78.20
2019-03-29T03:59:01.674Z,77.80
2019-03-29T04:00:44.650Z,78.40
2019-03-29T04:02:17.466Z,78.20
2019-03-29T04:03:50.108Z,78.10
2019-03-29T04:05:22.938Z,78.30
2019-03-29T04:06:55.872Z,78.20
2019-03-29T04:08:28.617Z,78.40
2019-03-29T04:10:01.531Z,78.40
2019-03-29T04:11:34.380Z,78.50
2019-03-29T04:13:07.081Z,78.40
2019-03-29T04:14:39.893Z,78.50
2019-03-29T04:16:12.710Z,78.50
2019-03-29T04:17:45.516Z,78.10
2019-03-29T04:19:18.195Z,78.80
2019-03-29T04:20:50.931Z,78.40
2019-03-29T04:22:23.634Z,78.40
2019-03-29T04:23:56.440Z,78.20
2019-03-29T04:25:29.200Z,78.30
2019-03-29T04:27:01.993Z,78.30
2019-03-29T04:28:34.834Z,78.40
2019-03-29T04:30:07.860Z,79.10
2019-03-29T04:31:40.676Z,78.60
2019-03-29T04:33:13.469Z,79.50
2019-03-29T04:34:46.311Z,78.80
2019-03-29T04:36:19.081Z,78.30
2019-03-29T04:37:51.869Z,78.30
2019-03-29T04:39:24.702Z,78.40
2019-03-29T04:40:57.507Z,78.50
2019-03-29T04:42:30.329Z,78.40
2019-03-29T04:44:03.341Z,79.00
2019-03-29T04:45:36.028Z,78.40
2019-03-29T04:47:08.819Z,78.50
2019-03-29T04:48:41.662Z,78.60
2019-03-29T04:50:14.325Z,79.10
2019-03-29T04:51:46.989Z,78.90
2019-03-29T04:53:19.651Z,78.90
2019-03-29T04:54:52.480Z,79.00
2019-03-29T04:56:25.097Z,78.90
2019-03-29T04:57:57.862Z,78.60
2019-03-29T04:59:30.624Z,79.30
2019-03-29T05:01:03.441Z,79.00
2019-03-29T05:02:36.141Z,79.70
2019-03-29T05:04:08.906Z,79.40
2019-03-29T05:05:41.714Z,79.40
2019-03-29T05:07:14.515Z,79.30
2019-03-29T05:08:47.362Z,79.40
2019-03-29T05:10:21.806Z,79.90
2019-03-29T05:11:54.953Z,79.00
2019-03-29T05:13:27.594Z,79.70
2019-03-29T05:15:00.412Z,79.30
2019-03-29T05:16:33.248Z,80.20
2019-03-29T05:18:06.039Z,79.30
2019-03-29T05:19:38.799Z,79.40
2019-03-29T05:21:11.657Z,79.30
2019-03-29T05:22:44.346Z,79.70
2019-03-29T05:24:17.026Z,80.30
2019-03-29T05:25:49.838Z,80.20
2019-03-29T05:27:22.572Z,79.80
2019-03-29T05:28:55.283Z,79.50
2019-03-29T05:30:27.905Z,79.70
2019-03-29T05:32:00.809Z,79.40
2019-03-29T05:33:33.653Z,79.40
2019-03-29T05:35:06.477Z,80.10
2019-03-29T05:36:39.304Z,79.60
2019-03-29T05:38:12.130Z,79.90
2019-03-29T05:39:44.980Z,79.70
2019-03-29T05:41:17.652Z,79.70
2019-03-29T05:42:50.469Z,79.70
2019-03-29T05:44:23.324Z,79.60
2019-03-29T05:45:56.124Z,79.50
2019-03-29T05:47:29.495Z,80.10
2019-03-29T05:49:02.332Z,79.70
2019-03-29T05:50:36.862Z,79.30
2019-03-29T05:52:09.767Z,79.50
2019-03-29T05:53:42.449Z,79.90
2019-03-29T05:55:15.225Z,80.10
2019-03-29T05:56:48.025Z,80.10
2019-03-29T05:58:20.781Z,80.00
2019-03-29T05:59:53.590Z,80.00
2019-03-29T06:01:26.345Z,79.70
2019-03-29T06:02:59.132Z,79.80
2019-03-29T06:04:31.948Z,79.50
2019-03-29T06:06:04.761Z,80.10
2019-03-29T06:07:37.545Z,80.30
2019-03-29T06:09:10.250Z,80.70
2019-03-29T06:10:48.785Z,79.70
2019-03-29T06:12:17.818Z,79.70
2019-03-29T06:13:50.706Z,79.80
2019-03-29T06:15:23.543Z,79.40
2019-03-29T06:16:56.231Z,79.70
2019-03-29T06:18:28.865Z,79.70
2019-03-29T06:20:01.651Z,79.80
2019-03-29T06:21:34.355Z,79.70
2019-03-29T06:23:07.184Z,80.10
2019-03-29T06:24:42.351Z,79.80
2019-03-29T06:26:15.510Z,79.70
2019-03-29T06:27:48.222Z,80.40
2019-03-29T06:29:21.156Z,80.20
2019-03-29T06:30:54.225Z,80.50
2019-03-29T06:32:27.879Z,80.70
2019-03-29T06:34:00.786Z,80.20
2019-03-29T06:35:46.617Z,80.10
2019-03-29T06:37:21.853Z,80.00
2019-03-29T06:38:56.014Z,79.80
2019-03-29T06:40:28.928Z,80.40
2019-03-29T06:42:01.770Z,80.00
2019-03-29T06:43:34.591Z,79.90
2019-03-29T06:45:07.536Z,80.30
2019-03-29T06:46:40.413Z,80.30
2019-03-29T06:48:13.350Z,79.70
2019-03-29T06:49:46.333Z,79.70
2019-03-29T06:51:21.393Z,80.80
2019-03-29T06:52:54.249Z,79.80
2019-03-29T06:54:26.939Z,80.00
2019-03-29T06:55:59.767Z,79.80
2019-03-29T06:57:32.584Z,79.70
2019-03-29T06:59:05.424Z,79.70
2019-03-29T07:00:38.278Z,80.10
2019-03-29T07:02:11.177Z,80.00
2019-03-29T07:03:44.310Z,79.40
2019-03-29T07:05:17.111Z,79.40
2019-03-29T07:06:49.869Z,79.40
2019-03-29T07:08:22.576Z,80.40
2019-03-29T07:09:55.389Z,79.70
2019-03-29T07:11:28.230Z,79.40
2019-03-29T07:13:00.982Z,79.00
2019-03-29T07:14:33.854Z,79.30
2019-03-29T07:16:06.739Z,79.20
2019-03-29T07:17:39.534Z,79.00
2019-03-29T07:19:12.320Z,79.10
2019-03-29T07:20:45.153Z,78.90
2019-03-29T07:22:17.996Z,79.10
2019-03-29T07:23:51.596Z,78.90
2019-03-29T07:25:24.287Z,78.60
2019-03-29T07:26:57.137Z,78.90
2019-03-29T07:28:29.948Z,78.90
2019-03-29T07:30:02.903Z,78.80
2019-03-29T07:31:35.706Z,78.70
2019-03-29T07:33:08.507Z,78.70
2019-03-29T07:34:41.216Z,78.80
2019-03-29T07:36:14.070Z,79.00
2019-03-29T07:37:46.913Z,79.10
2019-03-29T07:39:19.727Z,78.80
2019-03-29T07:40:52.660Z,78.60
2019-03-29T07:42:29.149Z,78.90
2019-03-29T07:44:01.935Z,78.50
2019-03-29T07:45:34.775Z,78.60
2019-03-29T07:47:07.630Z,78.90
2019-03-29T07:48:40.582Z,78.60
2019-03-29T07:50:13.389Z,79.20
2019-03-29T07:51:46.186Z,78.70
2019-03-29T07:53:18.906Z,79.10
2019-03-29T07:54:51.853Z,78.50
2019-03-29T07:56:24.524Z,77.70
2019-03-29T07:57:57.584Z,76.60
2019-03-29T07:59:30.492Z,75.20
2019-03-29T08:01:03.270Z,73.60
2019-03-29T08:02:36.161Z,72.70
2019-03-29T08:04:08.975Z,71.50
2019-03-29T08:05:41.661Z,70.20
2019-03-29T08:07:26.713Z,69.70
2019-03-29T08:08:51.354Z,67.40
2019-03-29T08:10:29.120Z,66.90
2019-03-29T08:11:59.581Z,66.00
2019-03-29T08:13:33.181Z,65.20
2019-03-29T08:15:09.474Z,65.00
2019-03-29T08:16:41.874Z,64.50
2019-03-29T08:18:48.009Z,63.30
2019-03-29T08:21:57.811Z,63.40
2019-03-29T08:24:04.696Z,62.10
2019-03-29T08:25:37.353Z,61.60
2019-03-29T08:27:10.185Z,60.50
2019-03-29T08:28:42.858Z,61.10
2019-03-29T08:30:15.628Z,60.10
2019-03-29T08:31:48.490Z,59.40
2019-03-29T08:33:21.355Z,59.50
2019-03-29T08:34:54.202Z,57.50
2019-03-29T08:36:27.127Z,58.30
2019-03-29T08:37:59.981Z,58.10
2019-03-29T08:39:32.868Z,57.60
2019-03-29T08:41:05.793Z,57.60
2019-03-29T08:42:38.577Z,57.30
2019-03-29T08:44:11.979Z,56.90
2019-03-29T08:45:45.022Z,55.60
2019-03-29T08:47:17.842Z,56.00
2019-03-29T08:48:50.651Z,54.90
2019-03-29T08:50:35.923Z,55.60
2019-03-29T08:52:10.044Z,55.50
2019-03-29T08:53:44.651Z,54.80
2019-03-29T08:55:18.289Z,55.70
2019-03-29T08:56:52.148Z,56.20
2019-03-29T08:58:26.064Z,55.50
2019-03-29T09:00:01.627Z,56.60
2019-03-29T09:01:35.744Z,56.60
2019-03-29T09:03:10.485Z,56.20
2019-03-29T09:04:44.540Z,56.30
2019-03-29T09:06:19.344Z,55.90
2019-03-29T09:07:58.268Z,55.50
2019-03-29T09:09:31.502Z,55.00
2019-03-29T09:11:07.557Z,55.00
2019-03-29T09:12:40.559Z,54.00
2019-03-29T09:14:14.593Z,53.90
2019-03-29T09:15:48.150Z,53.40
2019-03-29T09:17:21.537Z,53.60
2019-03-29T09:18:54.852Z,53.00
2019-03-29T09:20:29.612Z,52.30
2019-03-29T09:22:03.580Z,51.50
2019-03-29T09:23:37.174Z,52.40
2019-03-29T09:25:10.867Z,51.60
2019-03-29T09:26:44.695Z,52.10
2019-03-29T09:28:19.834Z,51.80
2019-03-29T09:29:53.049Z,51.50
2019-03-29T09:31:27.173Z,51.10
2019-03-29T09:33:00.739Z,50.80
2019-03-29T09:34:34.278Z,49.90
2019-03-29T09:36:08.359Z,50.10
2019-03-29T09:37:43.508Z,49.20
2019-03-29T09:39:17.658Z,50.00
2019-03-29T09:40:58.889Z,49.70
2019-03-29T09:42:30.813Z,50.20
2019-03-29T09:44:05.183Z,49.50
2019-03-29T09:45:41.147Z,48.70
2019-03-29T09:47:15.561Z,49.20
2019-03-29T09:48:49.278Z,48.70
2019-03-29T09:50:23.489Z,47.50
2019-03-29T09:51:58.876Z,47.80
2019-03-29T09:53:33.503Z,48.10
2019-03-29T09:55:07.441Z,48.20
2019-03-29T09:56:48.099Z,47.60
2019-03-29T09:58:20.419Z,46.90
2019-03-29T09:59:54.902Z,47.60
2019-03-29T10:01:28.865Z,47.30
2019-03-29T10:03:04.682Z,45.80
2019-03-29T10:04:38.563Z,46.00
2019-03-29T10:06:15.458Z,44.90
2019-03-29T10:07:53.176Z,46.70
2019-03-29T10:09:27.471Z,45.50
2019-03-29T10:11:02.152Z,46.20
2019-03-29T10:12:43.230Z,44.70
2019-03-29T10:14:18.827Z,45.30
2019-03-29T10:16:15.310Z,45.30
2019-03-29T10:17:51.829Z,44.40
2019-03-29T10:19:30.092Z,45.00
2019-03-29T10:21:12.747Z,45.40
2019-03-29T10:22:47.730Z,45.80
2019-03-29T10:24:29.910Z,44.80
2019-03-29T10:26:09.953Z,45.70
2019-03-29T10:27:54.097Z,46.20
2019-03-29T10:29:29.368Z,46.10
2019-03-29T10:31:02.178Z,46.60
2019-03-29T10:32:34.962Z,46.70
2019-03-29T10:34:07.695Z,47.40
2019-03-29T10:35:51.753Z,46.10
2019-03-29T10:37:15.219Z,46.30
2019-03-29T10:38:48.045Z,45.60
2019-03-29T10:40:21.876Z,46.90
2019-03-29T10:41:54.889Z,46.10
2019-03-29T10:43:27.658Z,46.10
2019-03-29T10:45:00.531Z,46.50
2019-03-29T10:46:33.364Z,45.60
2019-03-29T10:48:06.230Z,45.90
2019-03-29T10:49:39.107Z,47.00
2019-03-29T10:51:11.889Z,46.80
2019-03-29T10:52:44.846Z,47.20
2019-03-29T10:54:17.857Z,47.20
2019-03-29T10:55:50.953Z,47.30
2019-03-29T10:57:23.946Z,47.30
2019-03-29T10:58:56.881Z,47.90
2019-03-29T11:00:37.246Z,47.90
2019-03-29T11:02:10.077Z,47.20
2019-03-29T11:03:42.738Z,47.30
2019-03-29T11:05:15.732Z,47.90
2019-03-29T11:06:48.619Z,47.50
2019-03-29T11:08:21.474Z,47.00
2019-03-29T11:09:54.307Z,47.50
2019-03-29T11:11:27.203Z,46.60
2019-03-29T11:13:11.988Z,45.90
2019-03-29T11:14:34.986Z,46.80
2019-03-29T11:16:07.758Z,46.70
2019-03-29T11:17:40.575Z,46.70
2019-03-29T11:19:13.413Z,46.20
2019-03-29T11:20:46.194Z,46.30
2019-03-29T11:22:18.992Z,46.50
2019-03-29T11:23:51.822Z,46.50
2019-03-29T11:25:24.612Z,46.80
2019-03-29T11:26:57.473Z,46.70
2019-03-29T11:28:30.302Z,47.30
2019-03-29T11:30:03.944Z,47.30
2019-03-29T11:31:36.721Z,46.20
2019-03-29T11:33:09.562Z,46.30
2019-03-29T11:34:42.318Z,45.50
2019-03-29T11:36:15.155Z,46.20
2019-03-29T11:37:47.840Z,46.40
2019-03-29T11:39:20.720Z,46.60
2019-03-29T11:40:53.542Z,47.20
2019-03-29T11:42:26.324Z,47.30
2019-03-29T11:43:59.199Z,46.10
2019-03-29T11:45:32.091Z,46.80
2019-03-29T11:47:05.140Z,46.70
2019-03-29T11:48:37.993Z,47.30
2019-03-29T11:50:10.947Z,46.70
2019-03-29T11:51:43.766Z,46.50
2019-03-29T11:53:16.555Z,47.00
2019-03-29T11:54:49.364Z,46.80
2019-03-29T11:56:22.177Z,46.60
2019-03-29T11:57:56.113Z,46.50
2019-03-29T11:59:28.878Z,46.50
2019-03-29T12:01:01.753Z,46.80
2019-03-29T12:02:34.608Z,46.90
2019-03-29T12:04:07.377Z,47.00
2019-03-29T12:05:40.225Z,47.20
2019-03-29T12:07:13.056Z,47.60
2019-03-29T12:08:45.833Z,47.50
2019-03-29T12:10:19.492Z,47.80
2019-03-29T12:11:52.298Z,48.30
2019-03-29T12:13:25.399Z,47.90
2019-03-29T12:14:58.157Z,47.90
2019-03-29T12:16:30.968Z,47.80
2019-03-29T12:18:03.765Z,47.60
2019-03-29T12:19:37.517Z,46.90
2019-03-29T12:21:10.345Z,47.10
2019-03-29T12:22:44.433Z,46.80
2019-03-29T12:24:20.845Z,47.00
2019-03-29T12:25:53.624Z,46.50
2019-03-29T12:27:27.946Z,47.30
2019-03-29T12:29:00.873Z,47.30
2019-03-29T12:30:33.795Z,47.10
2019-03-29T12:32:06.659Z,47.00
2019-03-29T12:33:39.530Z,47.10
2019-03-29T12:35:12.629Z,46.70
2019-03-29T12:36:53.193Z,47.20
2019-03-29T12:38:26.132Z,47.70
2019-03-29T12:39:58.777Z,47.50
2019-03-29T12:41:31.828Z,47.40
2019-03-29T12:43:33.421Z,47.30
2019-03-29T12:45:09.220Z,47.40
2019-03-29T12:46:42.318Z,48.00
2019-03-29T12:48:15.345Z,48.80
2019-03-29T12:49:48.274Z,47.00
2019-03-29T12:51:21.048Z,47.40
2019-03-29T12:52:53.870Z,46.80
2019-03-29T12:54:26.706Z,46.70
2019-03-29T12:55:59.477Z,47.40
2019-03-29T12:57:32.302Z,48.10
2019-03-29T12:59:05.115Z,47.70
2019-03-29T13:00:38.711Z,48.10
2019-03-29T13:02:11.602Z,48.30
2019-03-29T13:03:44.285Z,48.20
2019-03-29T13:05:16.974Z,48.20
2019-03-29T13:06:51.140Z,48.40
2019-03-29T13:08:24.003Z,47.90
2019-03-29T13:09:56.769Z,48.20
2019-03-29T13:11:29.496Z,48.10
2019-03-29T13:13:02.602Z,48.10
2019-03-29T13:14:35.777Z,47.90
2019-03-29T13:16:08.905Z,48.20
2019-03-29T13:17:41.786Z,48.50
2019-03-29T13:19:14.618Z,48.50
2019-03-29T13:20:47.492Z,47.90
2019-03-29T13:22:20.672Z,47.60
2019-03-29T13:23:53.538Z,48.00
2019-03-29T13:25:26.523Z,48.40
2019-03-29T13:26:59.353Z,48.90
2019-03-29T13:28:32.198Z,49.00
2019-03-29T13:30:06.937Z,48.60
2019-03-29T13:31:39.744Z,48.40
2019-03-29T13:33:12.643Z,48.30
2019-03-29T13:34:45.565Z,47.60
2019-03-29T13:36:18.387Z,48.00
2019-03-29T13:37:51.237Z,48.00
2019-03-29T13:39:24.057Z,48.40
2019-03-29T13:40:56.817Z,48.00
2019-03-29T13:42:29.632Z,48.40
2019-03-29T13:44:02.360Z,48.10
2019-03-29T13:45:35.185Z,48.30
2019-03-29T13:47:07.981Z,48.50
2019-03-29T13:48:40.803Z,48.00
2019-03-29T13:50:13.585Z,48.90
2019-03-29T13:51:46.381Z,49.00
2019-03-29T13:53:19.235Z,49.10
2019-03-29T13:54:52.000Z,48.40
2019-03-29T13:56:24.837Z,48.40
2019-03-29T13:57:57.672Z,48.50
2019-03-29T13:59:31.796Z,48.90
2019-03-29T14:01:05.039Z,48.80
2019-03-29T14:02:37.830Z,48.70
2019-03-29T14:04:10.636Z,48.30
2019-03-29T14:05:43.431Z,48.30
2019-03-29T14:07:16.258Z,48.60
2019-03-29T14:08:49.100Z,48.80
2019-03-29T14:10:26.205Z,48.60
2019-03-29T14:11:59.348Z,48.60
2019-03-29T14:13:32.784Z,48.60
2019-03-29T14:15:06.492Z,49.10
2019-03-29T14:16:39.680Z,49.70
2019-03-29T14:18:13.078Z,48.70
2019-03-29T14:19:46.030Z,49.20
2019-03-29T14:21:19.378Z,48.20
2019-03-29T14:22:52.963Z,49.00
2019-03-29T14:24:26.277Z,49.10
2019-03-29T14:25:59.481Z,49.10
2019-03-29T14:27:32.177Z,48.40
2019-03-29T14:29:04.886Z,48.70
2019-03-29T14:30:37.583Z,48.50
2019-03-29T14:32:10.404Z,48.50
2019-03-29T14:33:43.184Z,48.70
2019-03-29T14:35:15.996Z,48.80
2019-03-29T14:36:48.889Z,48.80
2019-03-29T14:38:21.568Z,49.30
2019-03-29T14:39:54.227Z,49.00
2019-03-29T14:41:27.045Z,49.10
2019-03-29T14:42:59.875Z,49.00
2019-03-29T14:44:32.588Z,49.10
2019-03-29T14:46:05.412Z,48.70
2019-03-29T14:47:43.049Z,49.00
2019-03-29T14:49:13.060Z,48.70
2019-03-29T14:50:45.783Z,48.30
2019-03-29T14:52:18.616Z,48.80
2019-03-29T14:53:51.396Z,47.90
2019-03-29T14:55:24.263Z,48.70
2019-03-29T14:56:56.953Z,48.40
2019-03-29T14:58:29.684Z,48.80
2019-03-29T15:00:02.568Z,48.60
2019-03-29T15:01:35.396Z,48.50
2019-03-29T15:03:08.341Z,48.50
2019-03-29T15:04:41.192Z,48.50
2019-03-29T15:06:14.151Z,49.10
2019-03-29T15:07:47.138Z,49.30
2019-03-29T15:09:20.088Z,49.00
2019-03-29T15:10:52.749Z,49.30
2019-03-29T15:12:25.459Z,48.60
2019-03-29T15:13:58.115Z,48.70
2019-03-29T15:15:30.938Z,48.70
2019-03-29T15:17:03.692Z,48.70
2019-03-29T15:18:36.501Z,48.70
2019-03-29T15:20:09.461Z,49.00
2019-03-29T15:21:42.244Z,48.80
2019-03-29T15:23:14.920Z,48.80
2019-03-29T15:24:47.724Z,48.80
2019-03-29T15:26:20.472Z,48.80
2019-03-29T15:27:53.279Z,48.50
2019-03-29T15:29:26.118Z,48.30
2019-03-29T15:30:58.915Z,48.40
2019-03-29T15:32:31.772Z,48.80
2019-03-29T15:34:04.648Z,48.70
2019-03-29T15:35:37.432Z,49.10
2019-03-29T15:37:10.358Z,48.90
2019-03-29T15:38:43.164Z,49.10
2019-03-29T15:40:16.024Z,49.20
2019-03-29T15:41:48.844Z,49.20
2019-03-29T15:43:21.705Z,49.00
2019-03-29T15:44:54.537Z,49.10
2019-03-29T15:46:27.226Z,49.20
2019-03-29T15:48:00.112Z,49.10
2019-03-29T15:49:32.875Z,49.20
2019-03-29T15:51:05.726Z,49.20
2019-03-29T15:52:38.597Z,48.90
2019-03-29T15:54:11.431Z,49.30
2019-03-29T15:55:44.268Z,49.30
2019-03-29T15:57:17.069Z,49.00
2019-03-29T15:58:49.879Z,49.00
2019-03-29T16:00:22.772Z,48.80
2019-03-29T16:01:55.627Z,48.60
2019-03-29T16:03:28.470Z,48.60
2019-03-29T16:05:01.302Z,48.90
2019-03-29T16:06:34.076Z,49.10
2019-03-29T16:08:06.834Z,49.20
2019-03-29T16:09:39.515Z,49.00
2019-03-29T16:11:17.023Z,48.80
2019-03-29T16:12:46.864Z,48.90
2019-03-29T16:14:19.686Z,49.00
2019-03-29T16:15:52.483Z,48.90
2019-03-29T16:17:25.299Z,49.30
2019-03-29T16:18:57.991Z,48.80
2019-03-29T16:20:32.897Z,48.80
2019-03-29T16:22:06.247Z,48.60
2019-03-29T16:23:39.182Z,48.80
2019-03-29T16:25:11.985Z,48.60
2019-03-29T16:26:44.811Z,48.60
2019-03-29T16:28:17.515Z,48.50
2019-03-29T16:29:50.186Z,48.60
2019-03-29T16:31:23.145Z,48.20
2019-03-29T16:32:55.947Z,48.30
2019-03-29T16:34:28.801Z,48.80
2019-03-29T16:36:01.621Z,48.80
2019-03-29T16:37:34.448Z,49.10
2019-03-29T16:39:07.435Z,48.70
2019-03-29T16:40:40.247Z,48.80
2019-03-29T16:42:13.066Z,48.80
2019-03-29T16:43:45.910Z,48.80
2019-03-29T16:45:18.597Z,48.70
2019-03-29T16:46:51.459Z,48.80
2019-03-29T16:48:24.671Z,48.90
2019-03-29T16:49:57.580Z,48.90
2019-03-29T16:51:30.361Z,49.30
2019-03-29T16:53:03.326Z,49.20
2019-03-29T16:54:36.154Z,49.10
2019-03-29T16:56:11.946Z,49.30
2019-03-29T16:57:43.794Z,49.10
2019-03-29T16:59:16.602Z,49.40
2019-03-29T17:00:49.388Z,49.60
2019-03-29T17:02:22.093Z,49.70
2019-03-29T17:03:54.869Z,49.30
2019-03-29T17:05:27.691Z,49.60
2019-03-29T17:07:00.508Z,49.60
2019-03-29T17:08:33.253Z,49.70
2019-03-29T17:10:06.779Z,49.90
2019-03-29T17:11:39.606Z,49.60
2019-03-29T17:13:12.450Z,49.50
2019-03-29T17:14:45.293Z,49.60
2019-03-29T17:16:29.767Z,49.80
2019-03-29T17:17:52.840Z,50.00
2019-03-29T17:19:25.640Z,49.80
2019-03-29T17:20:58.490Z,49.80
2019-03-29T17:22:31.457Z,49.80
2019-03-29T17:24:04.373Z,49.90
2019-03-29T17:25:37.193Z,49.90
2019-03-29T17:27:10.025Z,49.80
2019-03-29T17:28:43.011Z,50.00
2019-03-29T17:30:20.805Z,50.00
2019-03-29T17:31:53.594Z,50.20
2019-03-29T17:33:26.477Z,50.20
2019-03-29T17:34:59.303Z,50.30
2019-03-29T17:36:32.116Z,50.30
2019-03-29T17:38:04.934Z,51.10
2019-03-29T17:39:37.732Z,50.40
2019-03-29T17:41:10.426Z,50.60
2019-03-29T17:42:43.241Z,50.70
2019-03-29T17:44:16.100Z,50.70
2019-03-29T17:45:48.934Z,50.70
2019-03-29T17:47:21.696Z,50.70
2019-03-29T17:48:54.521Z,50.80
2019-03-29T17:50:27.209Z,50.70
2019-03-29T17:52:00.014Z,50.90
2019-03-29T17:53:32.834Z,50.80
2019-03-29T17:55:06.108Z,50.80
2019-03-29T17:56:38.942Z,51.10
2019-03-29T17:58:11.669Z,50.90
2019-03-29T17:59:44.529Z,51.10
2019-03-29T18:01:17.364Z,51.10
2019-03-29T18:02:50.196Z,51.00
2019-03-29T18:04:23.020Z,51.10
2019-03-29T18:05:55.856Z,51.10
2019-03-29T18:07:28.523Z,51.20
2019-03-29T18:09:01.336Z,51.20
2019-03-29T18:10:34.221Z,51.30
2019-03-29T18:12:06.992Z,51.30
2019-03-29T18:13:39.649Z,51.30
2019-03-29T18:15:13.005Z,51.50
2019-03-29T18:16:45.836Z,51.50
2019-03-29T18:18:18.712Z,51.40
2019-03-29T18:19:51.642Z,51.50
2019-03-29T18:21:24.521Z,51.50
2019-03-29T18:22:57.365Z,51.40
2019-03-29T18:24:30.241Z,51.40
2019-03-29T18:26:03.061Z,51.60
2019-03-29T18:27:35.893Z,51.80
2019-03-29T18:29:08.708Z,51.60
2019-03-29T18:30:43.058Z,51.80
2019-03-29T18:32:16.177Z,51.60
2019-03-29T18:33:48.853Z,51.60
2019-03-29T18:35:21.611Z,51.70
2019-03-29T18:36:56.822Z,51.80
2019-03-29T18:38:29.867Z,51.60
2019-03-29T18:40:02.831Z,51.80
2019-03-29T18:41:35.511Z,51.90
2019-03-29T18:43:08.285Z,51.80
2019-03-29T18:44:41.178Z,51.90
2019-03-29T18:46:13.886Z,51.90
2019-03-29T18:47:46.680Z,52.00
2019-03-29T18:49:19.377Z,52.10
2019-03-29T18:50:52.115Z,52.10
2019-03-29T18:52:24.977Z,52.00
2019-03-29T18:53:57.817Z,52.10
2019-03-29T18:55:30.582Z,52.20
2019-03-29T18:57:03.230Z,52.20
2019-03-29T18:58:35.893Z,52.10
2019-03-29T19:00:09.016Z,52.20
2019-03-29T19:01:41.729Z,52.30
2019-03-29T19:03:14.508Z,52.20
2019-03-29T19:04:47.238Z,52.30
2019-03-29T19:06:20.099Z,52.40
2019-03-29T19:07:52.875Z,52.30
2019-03-29T19:09:25.688Z,52.30
2019-03-29T19:10:58.575Z,52.40
2019-03-29T19:12:31.383Z,52.50
2019-03-29T19:14:04.044Z,52.50
2019-03-29T19:15:36.761Z,52.50
2019-03-29T19:17:09.458Z,52.50
2019-03-29T19:18:42.272Z,52.60
2019-03-29T19:20:26.698Z,52.70
2019-03-29T19:21:49.766Z,52.50
2019-03-29T19:23:22.671Z,52.60
2019-03-29T19:24:55.395Z,52.60
2019-03-29T19:26:28.193Z,52.70
2019-03-29T19:28:01.057Z,52.70
2019-03-29T19:29:33.688Z,52.70
2019-03-29T19:31:06.581Z,52.60
2019-03-29T19:32:39.836Z,52.70
2019-03-29T19:34:12.885Z,52.80
2019-03-29T19:35:45.706Z,52.70
2019-03-29T19:37:18.523Z,52.70
2019-03-29T19:38:51.366Z,52.70
2019-03-29T19:40:24.219Z,52.80
2019-03-29T19:41:57.022Z,52.70
2019-03-29T19:43:29.831Z,52.80
2019-03-29T19:45:12.098Z,52.90
2019-03-29T19:46:44.878Z,52.90
2019-03-29T19:48:17.728Z,52.90
2019-03-29T19:49:50.515Z,53.00
2019-03-29T19:51:23.227Z,52.90
2019-03-29T19:52:55.936Z,53.40
2019-03-29T19:54:28.916Z,53.00
2019-03-29T19:56:01.814Z,53.00
2019-03-29T19:57:34.597Z,53.00
2019-03-29T19:59:07.405Z,53.20
2019-03-29T20:00:43.295Z,53.30
2019-03-29T20:02:16.129Z,53.40
2019-03-29T20:03:49.181Z,53.30